Chatham, MA

4:16 PM EST on February 09, 2016 (GMT -0500)
Chatham Wind and Time | | Change Station
CLOSE
Current Station
Personal Weather Station
Location: West Chatham, MA
Elevation: 50 ft
Nearby Weather Stations

Elev 50 ft 41.68 °N, 69.98 °W | Updated 1 minute ago

Light Snow
Light Snow Mist
31.5 °F
Feels Like 27 °F
N
5.0
Wind Variable Wind from North
Gusts 7.0 mph

Today
High -- | Low -- °F
--% Chance of Precip.
Yesterday
High -- | Low -- °F
Precip. -- in
Pressure 29.56 in
Visibility 2.5 miles
Clouds Scattered Clouds 900 ft
Overcast 1500 ft
Windchill 27 °F
Dew Point 31 °F
Humidity 97%
Rainfall 0.00 in
Snow Depth Not available.
6:43 AM 5:05 PM
New Moon, 2% visible
SPECI KCQX 092112Z AUTO 03008KT 2 1/2SM -SN BR SCT009 OVC015 M01/M02 A2956 RMK AO2 P0000 T10061017
Pressure 29.56 in
Visibility 2.5 miles
Clouds Scattered Clouds 900 ft
Overcast 1500 ft
Windchill 27 °F
Dew Point 31 °F
Humidity 97%
Rainfall 0.00 in
Snow Depth Not available.
6:43 AM 5:05 PM
New Moon, 2% visible
SPECI KCQX 092112Z AUTO 03008KT 2 1/2SM -SN BR SCT009 OVC015 M01/M02 A2956 RMK AO2 P0000 T10061017

10-Day Weather Forecast

Almanac

Astronomy

Feb. 09, 2016 Rise Set
Actual Time
Civil Twilight
Nautical Twilight
Astronomical Twilight
Moon
Length of Visible Light
Length of Day
Tomorrow will be .
, % of the Moon is Illuminated

Today's Extremes

State Highs State Lows

Community

WunderPhotos

Upload Photos

1,891,705 photos uploaded!

WunderBlog® & News

Nearby

Air Quality

  Air Quality AQ Index Pollutant
Not available.

Snow Depth

Station Depth Elevation

Earthquake Activity

City Distance Mag. Time & Date
Minimum magnitude displayed is 2.5.

Coastal Water Temperatures

Place Temperature

Stations

Nearby Weather Stations

Station Location Temp. Windchill Dew Point Humidity Wind Precip. Elev Updated Type
                   

Watches & Warnings

There are currently no watches in effect.